Parris Island, SC

10:17 PM EDT on August 30, 2016 (GMT -0400)
Shadow Moss | | Change Station
Active Advisory: Coastal Hazard Statement

Elev 46 ft 32.41 °N, 80.76 °W | Updated 1 minute ago

Clear
Clear
75.2 °F
Feels Like 74 °F
N
0.0
Wind Variable Wind from SSE

Today
High -- | Low -- °F
--% Chance of Precip.
Yesterday
High -- | Low -- °F
Precip. -- in
Pressure 30.00 in
Visibility 10.0 miles
Clouds Clear
Heat Index 74 °F
Dew Point 72 °F
Humidity 90%
Rainfall 0.08 in
Snow Depth Not available.
6:56 AM 7:49 PM
Waning Crescent, 2% visible
METAR KNBC 310156Z 10005KT 10SM CLR 27/23 A3000 RMK AO2 SLP159 T02720228 $
Pressure 30.00 in
Visibility 10.0 miles
Clouds Clear
Heat Index 74 °F
Dew Point 72 °F
Humidity 90%
Rainfall 0.08 in
Snow Depth Not available.
6:56 AM 7:49 PM
Waning Crescent, 2% visible
METAR KNBC 310156Z 10005KT 10SM CLR 27/23 A3000 RMK AO2 SLP159 T02720228 $

10-Day Weather Forecast

Almanac

Astronomy

Aug. 30, 2016 Rise Set
Actual Time
Civil Twilight
Nautical Twilight
Astronomical Twilight
Moon
Length of Visible Light
Length of Day
Tomorrow will be .
, % of the Moon is Illuminated

Today's Extremes

State Highs State Lows

Community

WunderPhotos

Upload Photos

1,935,993 photos uploaded!

WunderBlog® & News

Nearby

Air Quality

  Air Quality AQ Index Pollutant
Not available.

Snow Depth

Station Depth Elevation

Earthquake Activity

City Distance Mag. Time & Date
Minimum magnitude displayed is 2.5.

Coastal Water Temperatures

Place Temperature

Stations

Nearby Weather Stations

Station Location Temp. Windchill Dew Point Humidity Wind Precip. Elev Updated Type
                   

Watches & Warnings

Coastal Hazard Statement
Issued: 8:23 PM EDT Aug. 30, 2016 – National Weather Service

... High rip current risk remains in effect through Wednesday
afternoon...
... Coastal Flood Advisory is cancelled...

The National Weather Service in Charleston has cancelled the
coastal Flood Advisory.

* Rip currents... wind and wave conditions support the
development of very strong rip currents. These rip currents
will be life threatening to anyone who enters the surf.

Precautionary/preparedness actions...

No one should enter the surf due to life threatening rip
currents.